createdAt,value
2023-08-07T00:01:18.186Z,98888.91
2023-08-07T00:05:20.223Z,98893.22
2023-08-07T00:09:21.916Z,98890.91
2023-08-07T00:13:24.061Z,98881.28
2023-08-07T00:17:26.115Z,98882.28
2023-08-07T00:21:28.105Z,98891.88
2023-08-07T00:25:30.157Z,98923.47
2023-08-07T00:29:32.329Z,98924.16
2023-08-07T00:33:34.379Z,98912.84
2023-08-07T00:37:36.482Z,98921.31
2023-08-07T00:41:38.185Z,98915.47
2023-08-07T00:45:46.100Z,98906.84
2023-08-07T00:49:49.578Z,98902.25
2023-08-07T00:53:51.677Z,98905.06
2023-08-07T00:57:53.925Z,98894.31
2023-08-07T01:01:56.208Z,98883.56
2023-08-07T01:05:58.352Z,98874.94
2023-08-07T01:10:04.260Z,98864.69
2023-08-07T01:14:19.367Z,98862.06
2023-08-07T01:18:23.476Z,98865.50
2023-08-07T01:22:25.448Z,98857.09
2023-08-07T01:26:27.671Z,98875.13
2023-08-07T01:30:38.198Z,98874.63
2023-08-07T01:34:42.608Z,98883.34
2023-08-07T01:38:45.616Z,98891.81
2023-08-07T01:42:48.572Z,98912.94
2023-08-07T01:46:50.549Z,98921.22
2023-08-07T01:50:54.558Z,98910.84
2023-08-07T01:54:56.344Z,98894.06
2023-08-07T01:58:58.364Z,98878.09
2023-08-07T02:03:00.500Z,98874.25
2023-08-07T02:07:02.828Z,98888.41
2023-08-07T02:11:04.853Z,98919.66
2023-08-07T02:15:07.548Z,98932.91
2023-08-07T02:19:09.602Z,98929.06
2023-08-07T02:23:11.582Z,98935.22
2023-08-07T02:27:13.709Z,98931.91
2023-08-07T02:31:15.734Z,98934.41
2023-08-07T02:35:17.986Z,98943.38
2023-08-07T02:39:20.045Z,98948.03
2023-08-07T02:43:22.016Z,98933.50
2023-08-07T02:47:24.566Z,98936.25
2023-08-07T02:51:26.565Z,98937.22
2023-08-07T02:55:29.083Z,98923.28
2023-08-07T02:59:31.312Z,98915.41
2023-08-07T03:03:33.958Z,98922.97
2023-08-07T03:07:36.021Z,98928.75
2023-08-07T03:11:38.114Z,98928.31
2023-08-07T03:15:40.436Z,98945.25
2023-08-07T03:19:44.165Z,98958.69
2023-08-07T03:23:47.715Z,98952.56
2023-08-07T03:27:49.803Z,98967.25
2023-08-07T03:31:51.887Z,98973.81
2023-08-07T03:35:54.606Z,98979.63
2023-08-07T03:39:57.152Z,98984.75
2023-08-07T03:44:00.481Z,98975.00
2023-08-07T03:48:02.670Z,98989.03
2023-08-07T03:52:05.799Z,98993.84
2023-08-07T03:56:07.902Z,98992.44
2023-08-07T04:00:12.643Z,98987.66
2023-08-07T04:04:17.359Z,98976.50
2023-08-07T04:08:19.749Z,98980.53
2023-08-07T04:12:21.980Z,98976.03
2023-08-07T04:16:23.972Z,98984.50
2023-08-07T04:20:26.039Z,98975.31
2023-08-07T04:24:29.521Z,98985.91
2023-08-07T04:28:31.587Z,98989.88
2023-08-07T04:32:33.921Z,98990.38
2023-08-07T04:36:35.988Z,98987.69
2023-08-07T04:40:37.962Z,99004.34
2023-08-07T04:44:39.993Z,98997.28
2023-08-07T04:48:42.297Z,98988.25
2023-08-07T04:52:44.312Z,98983.13
2023-08-07T04:56:46.102Z,98999.34
2023-08-07T05:00:48.299Z,98985.66
2023-08-07T05:04:50.341Z,98973.06
2023-08-07T05:08:52.325Z,98971.44
2023-08-07T05:12:56.880Z,98969.94
2023-08-07T05:17:00.626Z,98979.47
2023-08-07T05:21:04.149Z,98979.81
2023-08-07T05:25:06.255Z,98973.66
2023-08-07T05:29:08.914Z,98976.84
2023-08-07T05:33:11.150Z,98977.94
2023-08-07T05:37:13.170Z,98978.81
2023-08-07T05:41:14.883Z,99004.75
2023-08-07T05:45:16.898Z,99001.53
2023-08-07T05:49:18.908Z,99004.75
2023-08-07T05:53:20.900Z,99010.88
2023-08-07T05:57:22.894Z,99020.84
2023-08-07T06:01:30.457Z,99018.97
2023-08-07T06:05:32.588Z,99030.78
2023-08-07T06:09:34.617Z,99023.94
2023-08-07T06:13:36.872Z,99023.59
2023-08-07T06:17:40.446Z,99028.44
2023-08-07T06:21:42.626Z,99043.31
2023-08-07T06:25:44.627Z,99042.09
2023-08-07T06:29:46.672Z,99038.06
2023-08-07T06:33:48.686Z,99040.97
2023-08-07T06:37:50.720Z,99036.38
2023-08-07T06:41:52.813Z,99035.91
2023-08-07T06:46:00.674Z,99035.41
2023-08-07T06:50:02.755Z,99039.69
2023-08-07T06:54:05.397Z,99028.59
2023-08-07T06:58:07.433Z,99018.13
2023-08-07T07:02:09.419Z,99027.59
2023-08-07T07:06:11.390Z,99020.97
2023-08-07T07:10:13.613Z,99021.84
2023-08-07T07:14:15.821Z,99015.75
2023-08-07T07:18:17.978Z,99009.16
2023-08-07T07:22:20.005Z,99019.28
2023-08-07T07:26:22.617Z,99047.25
2023-08-07T07:30:24.734Z,99054.56
2023-08-07T07:34:26.866Z,99045.75
2023-08-07T07:38:28.872Z,99067.50
2023-08-07T07:42:30.868Z,99080.06
2023-08-07T07:46:33.592Z,99063.13
2023-08-07T07:50:35.672Z,99086.38
2023-08-07T07:54:37.692Z,99116.94
2023-08-07T07:58:39.748Z,99109.75
2023-08-07T08:02:43.722Z,99109.06
2023-08-07T08:06:45.866Z,99098.44
2023-08-07T08:10:48.958Z,99104.56
2023-08-07T08:14:56.253Z,99114.19
2023-08-07T08:18:58.562Z,99132.13
2023-08-07T08:23:00.903Z,99162.28
2023-08-07T08:27:03.176Z,99157.47
2023-08-07T08:31:06.540Z,99162.69
2023-08-07T08:35:08.988Z,99155.22
2023-08-07T08:39:11.008Z,99177.63
2023-08-07T08:43:13.550Z,99160.19
2023-08-07T08:47:16.157Z,99175.28
2023-08-07T08:51:19.521Z,99186.88
2023-08-07T08:55:22.524Z,99186.69
2023-08-07T08:59:24.699Z,99184.06
2023-08-07T09:03:27.398Z,99183.75
2023-08-07T09:07:29.656Z,99196.03
2023-08-07T09:11:32.043Z,99214.75
2023-08-07T09:15:34.512Z,99231.19
2023-08-07T09:19:36.556Z,99253.00
2023-08-07T09:23:38.583Z,99263.97
2023-08-07T09:27:40.643Z,99245.63
2023-08-07T09:31:46.670Z,99267.63
2023-08-07T09:35:48.708Z,99277.13
2023-08-07T09:39:51.996Z,99279.28
2023-08-07T09:43:54.087Z,99313.59
2023-08-07T09:47:59.949Z,99301.78
2023-08-07T09:52:08.081Z,99293.94
2023-08-07T09:56:10.585Z,99303.94
2023-08-07T10:00:16.498Z,99317.91
2023-08-07T10:04:18.751Z,99316.22
2023-08-07T10:08:22.384Z,99307.47
2023-08-07T10:12:24.432Z,99305.16
2023-08-07T10:16:31.152Z,99301.09
2023-08-07T10:20:33.381Z,99313.66
2023-08-07T10:24:41.402Z,99308.28
2023-08-07T10:28:44.482Z,99304.84
2023-08-07T10:32:46.891Z,99295.13
2023-08-07T10:36:48.933Z,99313.06
2023-08-07T10:41:07.944Z,99321.84
2023-08-07T10:45:09.924Z,99305.47
2023-08-07T10:49:11.915Z,99305.28
2023-08-07T10:53:33.106Z,99296.31
2023-08-07T10:57:35.124Z,99308.38
2023-08-07T11:01:39.900Z,99319.75
2023-08-07T11:05:42.044Z,99323.91
2023-08-07T11:09:44.102Z,99336.03
2023-08-07T11:13:46.357Z,99325.91
2023-08-07T11:17:48.481Z,99328.34
2023-08-07T11:21:51.926Z,99340.81
2023-08-07T11:25:54.553Z,99345.09
2023-08-07T11:29:56.382Z,99339.22
2023-08-07T11:33:59.218Z,99343.56
2023-08-07T11:38:01.620Z,99343.84
2023-08-07T11:42:03.501Z,99330.28
2023-08-07T11:46:08.130Z,99326.06
2023-08-07T11:50:11.025Z,99327.47
2023-08-07T11:54:15.544Z,99336.03
2023-08-07T11:58:17.494Z,99341.81
2023-08-07T12:02:25.171Z,99330.19
2023-08-07T12:06:27.535Z,99326.97
2023-08-07T12:10:29.304Z,99339.66
2023-08-07T12:14:32.099Z,99344.56
2023-08-07T12:18:34.309Z,99353.56
2023-08-07T12:22:36.738Z,99350.38
2023-08-07T12:26:38.686Z,99373.28
2023-08-07T12:30:41.516Z,99383.34
2023-08-07T12:38:48.887Z,99404.91
2023-08-07T12:42:52.011Z,99410.94
2023-08-07T12:46:53.762Z,99423.22
2023-08-07T12:50:55.847Z,99417.44
2023-08-07T12:54:57.842Z,99431.78
2023-08-07T12:58:59.901Z,99430.72
2023-08-07T13:03:01.887Z,99420.06
2023-08-07T13:07:04.434Z,99421.22
2023-08-07T13:11:06.461Z,99431.22
2023-08-07T13:15:10.295Z,99426.06
2023-08-07T13:19:12.318Z,99425.88
2023-08-07T13:23:15.303Z,99403.97
2023-08-07T13:27:17.231Z,99398.16
2023-08-07T13:31:19.419Z,99407.13
2023-08-07T13:35:21.452Z,99411.28
2023-08-07T13:39:23.463Z,99417.13
2023-08-07T13:43:25.621Z,99413.31
2023-08-07T13:47:27.863Z,99419.59
2023-08-07T13:51:29.885Z,99421.78
2023-08-07T13:55:31.966Z,99423.50
2023-08-07T13:59:34.093Z,99431.06
2023-08-07T14:03:36.279Z,99429.75
2023-08-07T14:07:38.293Z,99441.59
2023-08-07T14:11:40.934Z,99445.03
2023-08-07T14:15:43.089Z,99450.28
2023-08-07T14:19:45.526Z,99458.25
2023-08-07T14:23:49.230Z,99449.50
2023-08-07T14:27:51.323Z,99454.69
2023-08-07T14:31:53.352Z,99457.47
2023-08-07T14:35:55.357Z,99449.53
2023-08-07T14:39:57.069Z,99442.66
2023-08-07T14:43:59.175Z,99475.50
2023-08-07T14:48:01.203Z,99464.75
2023-08-07T14:52:03.571Z,99462.16
2023-08-07T14:56:05.557Z,99474.81
2023-08-07T15:00:09.757Z,99477.13
2023-08-07T15:04:12.120Z,99448.47
2023-08-07T15:08:14.363Z,99444.25
2023-08-07T15:12:16.341Z,99444.56
2023-08-07T15:16:18.448Z,99445.94
2023-08-07T15:20:21.073Z,99440.41
2023-08-07T15:24:23.142Z,99442.09
2023-08-07T15:28:25.254Z,99440.91
2023-08-07T15:32:27.374Z,99447.09
2023-08-07T15:36:29.608Z,99460.28
2023-08-07T15:40:31.696Z,99470.81
2023-08-07T15:44:33.874Z,99466.94
2023-08-07T15:48:35.966Z,99469.13
2023-08-07T15:52:38.089Z,99470.50
2023-08-07T15:56:40.159Z,99482.66
2023-08-07T16:00:42.170Z,99474.06
2023-08-07T16:04:44.228Z,99480.66
2023-08-07T16:08:46.831Z,99477.13
2023-08-07T16:12:49.082Z,99483.19
2023-08-07T16:16:52.657Z,99469.66
2023-08-07T16:20:54.713Z,99470.19
2023-08-07T16:24:56.816Z,99478.56
2023-08-07T16:28:58.824Z,99486.13
2023-08-07T16:33:00.973Z,99482.50
2023-08-07T16:37:03.946Z,99491.50
2023-08-07T16:41:05.961Z,99505.50
2023-08-07T16:45:08.663Z,99510.88
2023-08-07T16:49:10.815Z,99523.56
2023-08-07T16:53:12.778Z,99517.38
2023-08-07T16:57:15.691Z,99517.88
2023-08-07T17:01:17.813Z,99516.44
2023-08-07T17:05:23.337Z,99519.50
2023-08-07T17:09:25.397Z,99528.09
2023-08-07T17:13:27.443Z,99540.31
2023-08-07T17:17:29.446Z,99523.34
2023-08-07T17:21:31.537Z,99534.72
2023-08-07T17:25:33.645Z,99540.06
2023-08-07T17:29:35.758Z,99546.41
2023-08-07T17:33:38.374Z,99545.38
2023-08-07T17:37:40.334Z,99546.44
2023-08-07T17:41:42.395Z,99558.25
2023-08-07T17:45:44.659Z,99557.41
2023-08-07T17:49:46.793Z,99574.88
2023-08-07T17:53:48.766Z,99576.22
2023-08-07T17:57:51.634Z,99581.84
2023-08-07T18:01:53.617Z,99579.88
2023-08-07T18:05:56.432Z,99583.03
2023-08-07T18:09:58.768Z,99584.00
2023-08-07T18:14:00.801Z,99591.66
2023-08-07T18:18:03.046Z,99590.50
2023-08-07T18:22:05.193Z,99592.34
2023-08-07T18:26:07.199Z,99599.66
2023-08-07T18:30:09.708Z,99614.47
2023-08-07T18:34:13.019Z,99618.13
2023-08-07T18:38:15.271Z,99627.75
2023-08-07T18:42:17.232Z,99630.03
2023-08-07T18:46:19.311Z,99629.19
2023-08-07T18:50:21.480Z,99637.16
2023-08-07T18:54:25.469Z,99637.31
2023-08-07T18:58:27.586Z,99644.25
2023-08-07T19:02:29.807Z,99637.47
2023-08-07T19:06:33.674Z,99628.19
2023-08-07T19:10:36.106Z,99632.50
2023-08-07T19:14:38.359Z,99633.34
2023-08-07T19:18:40.376Z,99638.19
2023-08-07T19:22:42.702Z,99644.25
2023-08-07T19:26:44.822Z,99645.75
2023-08-07T19:31:00.062Z,99654.56
2023-08-07T19:35:08.059Z,99648.41
2023-08-07T19:39:10.289Z,99654.03
2023-08-07T19:43:12.303Z,99662.06
2023-08-07T19:47:25.876Z,99673.16
2023-08-07T19:51:36.754Z,99680.28
2023-08-07T19:55:38.815Z,99682.56
2023-08-07T19:59:40.964Z,99682.00
2023-08-07T20:03:43.100Z,99677.97
2023-08-07T20:07:45.155Z,99677.53
2023-08-07T20:11:47.206Z,99673.75
2023-08-07T20:15:49.279Z,99681.03
2023-08-07T20:19:51.727Z,99688.69
2023-08-07T20:23:54.143Z,99697.19
2023-08-07T20:27:56.128Z,99695.38
2023-08-07T20:32:00.299Z,99692.81
2023-08-07T20:36:02.717Z,99679.84
2023-08-07T20:40:05.355Z,99686.31
2023-08-07T20:44:07.584Z,99697.06
2023-08-07T20:48:09.873Z,99700.88
2023-08-07T20:52:12.103Z,99696.53
2023-08-07T20:56:14.365Z,99697.66
2023-08-07T21:00:17.237Z,99692.78
2023-08-07T21:04:19.435Z,99691.81
2023-08-07T21:08:21.482Z,99688.56
2023-08-07T21:12:23.654Z,99699.41
2023-08-07T21:16:26.191Z,99688.34
2023-08-07T21:20:28.226Z,99695.56
2023-08-07T21:24:30.493Z,99691.91
2023-08-07T21:28:35.007Z,99686.38
2023-08-07T21:32:37.168Z,99689.47
2023-08-07T21:36:39.317Z,99681.78
2023-08-07T21:40:41.361Z,99684.13
2023-08-07T21:44:43.517Z,99685.31
2023-08-07T21:48:45.983Z,99685.84
2023-08-07T21:52:48.335Z,99684.44
2023-08-07T21:56:50.584Z,99677.81
2023-08-07T22:00:52.835Z,99678.34
2023-08-07T22:04:54.944Z,99671.84
2023-08-07T22:08:57.080Z,99673.56
2023-08-07T22:12:59.112Z,99674.72
2023-08-07T22:17:01.241Z,99663.88
2023-08-07T22:21:03.452Z,99649.94
2023-08-07T22:25:05.932Z,99638.94
2023-08-07T22:29:08.032Z,99631.56
2023-08-07T22:33:10.141Z,99625.97
2023-08-07T22:37:12.344Z,99607.25
2023-08-07T22:41:15.631Z,99622.72
2023-08-07T22:45:17.632Z,99623.41
2023-08-07T22:49:21.130Z,99616.81
2023-08-07T22:53:23.493Z,99614.25
2023-08-07T22:57:25.549Z,99604.34
2023-08-07T23:01:27.779Z,99605.25
2023-08-07T23:05:29.554Z,99603.81
2023-08-07T23:09:32.007Z,99594.69
2023-08-07T23:13:34.287Z,99607.91
2023-08-07T23:17:36.500Z,99598.50
2023-08-07T23:21:38.563Z,99591.69
2023-08-07T23:25:40.608Z,99591.81
2023-08-07T23:29:43.489Z,99588.69
2023-08-07T23:33:45.624Z,99603.41
2023-08-07T23:37:47.717Z,99603.56
2023-08-07T23:41:49.952Z,99598.97
2023-08-07T23:45:52.030Z,99610.00
2023-08-07T23:49:54.102Z,99620.53
2023-08-07T23:53:56.218Z,99626.81
2023-08-07T23:57:58.231Z,99627.97
